Check out our new PWSWeather beta!
PWSweather.com
Personal Weather Stations
Station Observations
RW002
Arlington, VA 22207

Arlington, VA 22207

Lat: 38.8955, Lon: -77.1443

Elevation: 390

Station Type: Davis Vantage Pro II

jp_angelone@msn.com

High Low Average
Temperature 61.8°F16.6°C 49.2°F9.6°C 56.8°F13.8°C
Dew Point 59.4°F15.2°C 39.8°F4.3°C 52.1°F11.2°C
Winds 14.0 mph 22.5 kmh Calm Calm 2.0 mph SW3.2 kmh SW
Wind Gusts 28.0 mph45.1 kmh -- 7.0 mph11.3 kmh
Humidity 93% 63% 85%
Pressure 29.96 in1014.6 mb 29.48 in998.3 mb -
Precipitation 1.38 in35.1 mm - -
Hour Temp Dew Point Humidity Winds Wind Gusts Pressure Precip Precip Rate Daily Precip Total
12:02 AM 57.1°F13.9°C 52.0°F11.1°C 83% Calm Calm -- 29.96 in1014.6 mb 0.00 in0.0 mm 0.00 in0.0 mm 0.00 in0.0 mm
12:07 AM 57.1°F13.9°C 52.0°F11.1°C 83% Calm Calm -- 29.96 in1014.6 mb 0.00 in0.0 mm 0.00 in0.0 mm 0.00 in0.0 mm
12:12 AM 57.2°F14.0°C 52.4°F11.3°C 84% Calm Calm -- 29.96 in1014.6 mb 0.00 in0.0 mm 0.00 in0.0 mm 0.00 in0.0 mm
12:17 AM 57.2°F14.0°C 52.4°F11.3°C 84% Calm Calm -- 29.96 in1014.6 mb 0.00 in0.0 mm 0.00 in0.0 mm 0.00 in0.0 mm
12:22 AM 57.3°F14.1°C 52.5°F11.4°C 84% Calm Calm -- 29.96 in1014.6 mb 0.00 in0.0 mm 0.00 in0.0 mm 0.00 in0.0 mm
12:27 AM 57.5°F14.2°C 53.0°F11.7°C 85% Calm Calm -- 29.96 in1014.6 mb 0.00 in0.0 mm 0.00 in0.0 mm 0.00 in0.0 mm
12:32 AM 57.6°F14.2°C 53.1°F11.7°C 85% Calm Calm 1.0 mph1.6 kmh 29.96 in1014.6 mb 0.00 in0.0 mm 0.00 in0.0 mm 0.00 in0.0 mm
12:37 AM 57.8°F14.3°C 53.3°F11.8°C 85% Calm Calm -- 29.95 in1014.2 mb 0.00 in0.0 mm 0.00 in0.0 mm 0.00 in0.0 mm
12:42 AM 57.9°F14.4°C 53.4°F11.9°C 85% Calm Calm -- 29.95 in1014.2 mb 0.00 in0.0 mm 0.00 in0.0 mm 0.00 in0.0 mm
12:47 AM 57.9°F14.4°C 53.4°F11.9°C 85% Calm Calm -- 29.95 in1014.2 mb 0.00 in0.0 mm 0.00 in0.0 mm 0.00 in0.0 mm
12:52 AM 58.0°F14.4°C 53.5°F11.9°C 85% Calm Calm -- 29.95 in1014.2 mb 0.00 in0.0 mm 0.00 in0.0 mm 0.00 in0.0 mm
12:57 AM 58.0°F14.4°C 53.5°F11.9°C 85% Calm Calm -- 29.95 in1014.2 mb 0.00 in0.0 mm 0.00 in0.0 mm 0.00 in0.0 mm
01:02 AM 58.0°F14.4°C 53.5°F11.9°C 85% Calm Calm -- 29.95 in1014.2 mb 0.00 in0.0 mm 0.00 in0.0 mm 0.00 in0.0 mm
01:07 AM 58.1°F14.5°C 53.9°F12.2°C 86% Calm Calm -- 29.95 in1014.2 mb 0.00 in0.0 mm 0.00 in0.0 mm 0.00 in0.0 mm
01:12 AM 58.2°F14.6°C 54.0°F12.2°C 86% Calm Calm -- 29.94 in1013.9 mb 0.00 in0.0 mm 0.00 in0.0 mm 0.00 in0.0 mm
01:17 AM 58.3°F14.6°C 54.1°F12.3°C 86% Calm Calm -- 29.94 in1013.9 mb 0.00 in0.0 mm 0.00 in0.0 mm 0.00 in0.0 mm
01:22 AM 58.3°F14.6°C 54.1°F12.3°C 86% Calm Calm -- 29.94 in1013.9 mb 0.00 in0.0 mm 0.00 in0.0 mm 0.00 in0.0 mm
01:27 AM 58.4°F14.7°C 54.2°F12.3°C 86% Calm Calm -- 29.94 in1013.9 mb 0.00 in0.0 mm 0.00 in0.0 mm 0.00 in0.0 mm
01:32 AM 58.5°F14.7°C 54.6°F12.6°C 87% Calm Calm -- 29.94 in1013.9 mb 0.00 in0.0 mm 0.00 in0.0 mm 0.00 in0.0 mm
01:37 AM 58.5°F14.7°C 54.6°F12.6°C 87% Calm Calm -- 29.93 in1013.5 mb 0.00 in0.0 mm 0.00 in0.0 mm 0.00 in0.0 mm
01:42 AM 58.5°F14.7°C 54.6°F12.6°C 87% Calm Calm -- 29.93 in1013.5 mb 0.00 in0.0 mm 0.00 in0.0 mm 0.00 in0.0 mm
01:47 AM 58.6°F14.8°C 54.7°F12.6°C 87% Calm Calm -- 29.93 in1013.5 mb 0.00 in0.0 mm 0.00 in0.0 mm 0.00 in0.0 mm
01:52 AM 58.7°F14.8°C 55.2°F12.9°C 88% Calm Calm -- 29.93 in1013.5 mb 0.00 in0.0 mm 0.00 in0.0 mm 0.00 in0.0 mm
01:57 AM 58.7°F14.8°C 55.2°F12.9°C 88% Calm Calm -- 29.92 in1013.2 mb 0.00 in0.0 mm 0.00 in0.0 mm 0.00 in0.0 mm
02:02 AM 58.7°F14.8°C 55.2°F12.9°C 88% Calm Calm -- 29.92 in1013.2 mb 0.00 in0.0 mm 0.00 in0.0 mm 0.00 in0.0 mm
02:07 AM 58.8°F14.9°C 55.3°F12.9°C 88% Calm Calm -- 29.91 in1012.9 mb 0.00 in0.0 mm 0.00 in0.0 mm 0.00 in0.0 mm
02:12 AM 58.9°F14.9°C 55.7°F13.2°C 89% Calm Calm -- 29.91 in1012.9 mb 0.00 in0.0 mm 0.00 in0.0 mm 0.00 in0.0 mm
02:17 AM 58.9°F14.9°C 55.7°F13.2°C 89% Calm Calm -- 29.91 in1012.9 mb 0.00 in0.0 mm 0.00 in0.0 mm 0.00 in0.0 mm
02:22 AM 59.0°F15.0°C 55.8°F13.2°C 89% 1.0 mph S1.6 kmh S 1.0 mph1.6 kmh 29.91 in1012.9 mb 0.00 in0.0 mm 0.00 in0.0 mm 0.00 in0.0 mm
02:27 AM 59.0°F15.0°C 55.8°F13.2°C 89% Calm Calm -- 29.90 in1012.5 mb 0.00 in0.0 mm 0.00 in0.0 mm 0.00 in0.0 mm
02:32 AM 59.0°F15.0°C 56.1°F13.4°C 90% Calm Calm 1.0 mph1.6 kmh 29.90 in1012.5 mb 0.00 in0.0 mm 0.00 in0.0 mm 0.00 in0.0 mm
02:37 AM 59.1°F15.1°C 56.2°F13.4°C 90% Calm Calm -- 29.89 in1012.2 mb 0.00 in0.0 mm 0.00 in0.0 mm 0.00 in0.0 mm
02:42 AM 59.1°F15.1°C 56.2°F13.4°C 90% Calm Calm 5.0 mph8.0 kmh 29.89 in1012.2 mb 0.00 in0.0 mm 0.00 in0.0 mm 0.00 in0.0 mm
02:47 AM 59.1°F15.1°C 56.2°F13.4°C 90% Calm Calm 3.0 mph4.8 kmh 29.89 in1012.2 mb 0.00 in0.0 mm 0.00 in0.0 mm 0.00 in0.0 mm
02:52 AM 59.1°F15.1°C 56.2°F13.4°C 90% Calm Calm -- 29.90 in1012.5 mb 0.00 in0.0 mm 0.00 in0.0 mm 0.00 in0.0 mm
02:57 AM 59.2°F15.1°C 56.3°F13.5°C 90% Calm Calm 2.0 mph3.2 kmh 29.89 in1012.2 mb 0.00 in0.0 mm 0.00 in0.0 mm 0.00 in0.0 mm
03:02 AM 59.2°F15.1°C 56.6°F13.7°C 91% Calm Calm 4.0 mph6.4 kmh 29.89 in1012.2 mb 0.00 in0.0 mm 0.00 in0.0 mm 0.00 in0.0 mm
03:07 AM 59.3°F15.2°C 56.7°F13.7°C 91% Calm Calm 5.0 mph8.0 kmh 29.89 in1012.2 mb 0.00 in0.0 mm 0.00 in0.0 mm 0.00 in0.0 mm
03:12 AM 59.2°F15.1°C 56.6°F13.7°C 91% Calm Calm -- 29.89 in1012.2 mb 0.00 in0.0 mm 0.00 in0.0 mm 0.00 in0.0 mm
03:17 AM 59.2°F15.1°C 56.6°F13.7°C 91% Calm Calm -- 29.89 in1012.2 mb 0.00 in0.0 mm 0.00 in0.0 mm 0.00 in0.0 mm
03:22 AM 59.2°F15.1°C 56.6°F13.7°C 91% 1.0 mph SSE1.6 kmh SSE 4.0 mph6.4 kmh 29.89 in1012.2 mb 0.00 in0.0 mm 0.00 in0.0 mm 0.00 in0.0 mm
03:27 AM 59.3°F15.2°C 56.7°F13.7°C 91% Calm Calm 8.0 mph12.9 kmh 29.89 in1012.2 mb 0.00 in0.0 mm 0.00 in0.0 mm 0.00 in0.0 mm
03:32 AM 59.3°F15.2°C 56.7°F13.7°C 91% Calm Calm -- 29.89 in1012.2 mb 0.00 in0.0 mm 0.00 in0.0 mm 0.00 in0.0 mm
03:37 AM 59.3°F15.2°C 56.7°F13.7°C 91% Calm Calm 6.0 mph9.7 kmh 29.89 in1012.2 mb 0.00 in0.0 mm 0.00 in0.0 mm 0.00 in0.0 mm
03:42 AM 59.3°F15.2°C 57.0°F13.9°C 92% Calm Calm 7.0 mph11.3 kmh 29.89 in1012.2 mb 0.00 in0.0 mm 0.00 in0.0 mm 0.00 in0.0 mm
03:47 AM 59.3°F15.2°C 57.0°F13.9°C 92% Calm Calm 4.0 mph6.4 kmh 29.88 in1011.9 mb 0.00 in0.0 mm 0.00 in0.0 mm 0.00 in0.0 mm
03:52 AM 59.3°F15.2°C 57.0°F13.9°C 92% Calm Calm 1.0 mph1.6 kmh 29.88 in1011.9 mb 0.00 in0.0 mm 0.00 in0.0 mm 0.00 in0.0 mm
03:57 AM 59.3°F15.2°C 57.0°F13.9°C 92% Calm Calm 2.0 mph3.2 kmh 29.87 in1011.5 mb 0.00 in0.0 mm 0.00 in0.0 mm 0.00 in0.0 mm
04:02 AM 59.2°F15.1°C 56.9°F13.8°C 92% Calm Calm -- 29.87 in1011.5 mb 0.00 in0.0 mm 0.00 in0.0 mm 0.00 in0.0 mm
04:07 AM 59.2°F15.1°C 56.9°F13.8°C 92% Calm Calm -- 29.87 in1011.5 mb 0.00 in0.0 mm 0.00 in0.0 mm 0.00 in0.0 mm
04:12 AM 59.2°F15.1°C 56.9°F13.8°C 92% Calm Calm -- 29.87 in1011.5 mb 0.00 in0.0 mm 0.00 in0.0 mm 0.00 in0.0 mm
04:17 AM 59.2°F15.1°C 56.9°F13.8°C 92% Calm Calm -- 29.87 in1011.5 mb 0.00 in0.0 mm 0.00 in0.0 mm 0.00 in0.0 mm
04:22 AM 59.2°F15.1°C 56.9°F13.8°C 92% Calm Calm 1.0 mph1.6 kmh 29.87 in1011.5 mb 0.00 in0.0 mm 0.00 in0.0 mm 0.00 in0.0 mm
04:27 AM 59.2°F15.1°C 56.9°F13.8°C 92% Calm Calm -- 29.86 in1011.2 mb 0.00 in0.0 mm 0.00 in0.0 mm 0.00 in0.0 mm
04:32 AM 59.2°F15.1°C 56.9°F13.8°C 92% Calm Calm -- 29.86 in1011.2 mb 0.00 in0.0 mm 0.00 in0.0 mm 0.00 in0.0 mm
04:37 AM 59.2°F15.1°C 56.9°F13.8°C 92% Calm Calm -- 29.86 in1011.2 mb 0.00 in0.0 mm 0.00 in0.0 mm 0.00 in0.0 mm
04:42 AM 59.2°F15.1°C 56.9°F13.8°C 92% Calm Calm -- 29.86 in1011.2 mb 0.00 in0.0 mm 0.00 in0.0 mm 0.00 in0.0 mm
04:47 AM 59.2°F15.1°C 56.9°F13.8°C 92% Calm Calm -- 29.86 in1011.2 mb 0.00 in0.0 mm 0.00 in0.0 mm 0.00 in0.0 mm
04:52 AM 59.2°F15.1°C 56.9°F13.8°C 92% Calm Calm -- 29.86 in1011.2 mb 0.00 in0.0 mm 0.00 in0.0 mm 0.00 in0.0 mm
04:57 AM 59.3°F15.2°C 57.0°F13.9°C 92% 1.0 mph S1.6 kmh S 1.0 mph1.6 kmh 29.86 in1011.2 mb 0.00 in0.0 mm 0.00 in0.0 mm 0.00 in0.0 mm
05:02 AM 59.3°F15.2°C 57.0°F13.9°C 92% Calm Calm 2.0 mph3.2 kmh 29.85 in1010.8 mb 0.00 in0.0 mm 0.00 in0.0 mm 0.00 in0.0 mm
05:07 AM 59.4°F15.2°C 57.1°F13.9°C 92% Calm Calm -- 29.84 in1010.5 mb 0.00 in0.0 mm 0.00 in0.0 mm 0.00 in0.0 mm
05:12 AM 59.4°F15.2°C 57.1°F13.9°C 92% Calm Calm -- 29.84 in1010.5 mb 0.00 in0.0 mm 0.00 in0.0 mm 0.00 in0.0 mm
05:17 AM 59.5°F15.3°C 57.2°F14.0°C 92% 1.0 mph S1.6 kmh S 3.0 mph4.8 kmh 29.84 in1010.5 mb 0.00 in0.0 mm 0.00 in0.0 mm 0.00 in0.0 mm
05:22 AM 59.6°F15.3°C 57.3°F14.1°C 92% Calm Calm 5.0 mph8.0 kmh 29.84 in1010.5 mb 0.00 in0.0 mm 0.00 in0.0 mm 0.00 in0.0 mm
05:27 AM 59.6°F15.3°C 57.3°F14.1°C 92% Calm Calm 4.0 mph6.4 kmh 29.84 in1010.5 mb 0.00 in0.0 mm 0.00 in0.0 mm 0.00 in0.0 mm
05:32 AM 59.7°F15.4°C 57.4°F14.1°C 92% Calm Calm 5.0 mph8.0 kmh 29.84 in1010.5 mb 0.00 in0.0 mm 0.00 in0.0 mm 0.00 in0.0 mm
05:37 AM 59.7°F15.4°C 57.4°F14.1°C 92% 3.0 mph SSW4.8 kmh SSW 3.0 mph4.8 kmh 29.85 in1010.8 mb 0.00 in0.0 mm 0.00 in0.0 mm 0.00 in0.0 mm
05:42 AM 59.8°F15.4°C 57.5°F14.2°C 92% Calm Calm 3.0 mph4.8 kmh 29.85 in1010.8 mb 0.00 in0.0 mm 0.00 in0.0 mm 0.00 in0.0 mm
05:47 AM 59.9°F15.5°C 57.6°F14.2°C 92% 2.0 mph S3.2 kmh S 3.0 mph4.8 kmh 29.84 in1010.5 mb 0.00 in0.0 mm 0.00 in0.0 mm 0.00 in0.0 mm
05:52 AM 59.9°F15.5°C 57.6°F14.2°C 92% Calm Calm 5.0 mph8.0 kmh 29.84 in1010.5 mb 0.00 in0.0 mm 0.00 in0.0 mm 0.00 in0.0 mm
05:57 AM 60.0°F15.6°C 57.7°F14.3°C 92% Calm Calm 6.0 mph9.7 kmh 29.85 in1010.8 mb 0.00 in0.0 mm 0.00 in0.0 mm 0.00 in0.0 mm
06:02 AM 60.1°F15.6°C 57.8°F14.3°C 92% 4.0 mph S6.4 kmh S 9.0 mph14.5 kmh 29.85 in1010.8 mb 0.00 in0.0 mm 0.00 in0.0 mm 0.00 in0.0 mm
06:07 AM 60.1°F15.6°C 57.8°F14.3°C 92% Calm Calm 9.0 mph14.5 kmh 29.86 in1011.2 mb 0.00 in0.0 mm 0.00 in0.0 mm 0.00 in0.0 mm
06:12 AM 60.2°F15.7°C 57.9°F14.4°C 92% Calm Calm 6.0 mph9.7 kmh 29.85 in1010.8 mb 0.00 in0.0 mm 0.00 in0.0 mm 0.00 in0.0 mm
06:17 AM 60.2°F15.7°C 57.9°F14.4°C 92% Calm Calm 5.0 mph8.0 kmh 29.85 in1010.8 mb 0.00 in0.0 mm 0.00 in0.0 mm 0.00 in0.0 mm
06:22 AM 60.3°F15.7°C 58.0°F14.4°C 92% 2.0 mph S3.2 kmh S 6.0 mph9.7 kmh 29.84 in1010.5 mb 0.00 in0.0 mm 0.00 in0.0 mm 0.00 in0.0 mm
06:27 AM 60.3°F15.7°C 58.0°F14.4°C 92% Calm Calm 6.0 mph9.7 kmh 29.85 in1010.8 mb 0.00 in0.0 mm 0.00 in0.0 mm 0.00 in0.0 mm
06:32 AM 60.4°F15.8°C 58.1°F14.5°C 92% Calm Calm 1.0 mph1.6 kmh 29.84 in1010.5 mb 0.00 in0.0 mm 0.00 in0.0 mm 0.00 in0.0 mm
06:37 AM 60.4°F15.8°C 58.1°F14.5°C 92% Calm Calm 7.0 mph11.3 kmh 29.84 in1010.5 mb 0.00 in0.0 mm 0.00 in0.0 mm 0.00 in0.0 mm
06:42 AM 60.5°F15.8°C 58.2°F14.6°C 92% 2.0 mph S3.2 kmh S 7.0 mph11.3 kmh 29.84 in1010.5 mb 0.00 in0.0 mm 0.00 in0.0 mm 0.00 in0.0 mm
06:47 AM 60.5°F15.8°C 58.2°F14.6°C 92% Calm Calm 3.0 mph4.8 kmh 29.83 in1010.2 mb 0.00 in0.0 mm 0.00 in0.0 mm 0.00 in0.0 mm
06:52 AM 60.5°F15.8°C 58.2°F14.6°C 92% Calm Calm -- 29.84 in1010.5 mb 0.00 in0.0 mm 0.00 in0.0 mm 0.00 in0.0 mm
06:57 AM 60.5°F15.8°C 58.2°F14.6°C 92% Calm Calm -- 29.83 in1010.2 mb 0.00 in0.0 mm 0.00 in0.0 mm 0.00 in0.0 mm
07:02 AM 60.5°F15.8°C 58.2°F14.6°C 92% Calm Calm 5.0 mph8.0 kmh 29.82 in1009.8 mb 0.00 in0.0 mm 0.00 in0.0 mm 0.00 in0.0 mm
07:07 AM 60.6°F15.9°C 58.3°F14.6°C 92% Calm Calm -- 29.81 in1009.5 mb 0.00 in0.0 mm 0.00 in0.0 mm 0.00 in0.0 mm
07:12 AM 60.6°F15.9°C 58.3°F14.6°C 92% Calm Calm 2.0 mph3.2 kmh 29.81 in1009.5 mb 0.00 in0.0 mm 0.00 in0.0 mm 0.00 in0.0 mm
07:17 AM 60.6°F15.9°C 58.3°F14.6°C 92% Calm Calm 2.0 mph3.2 kmh 29.81 in1009.5 mb 0.00 in0.0 mm 0.00 in0.0 mm 0.00 in0.0 mm
07:22 AM 60.6°F15.9°C 58.3°F14.6°C 92% Calm Calm -- 29.80 in1009.1 mb 0.00 in0.0 mm 0.00 in0.0 mm 0.00 in0.0 mm
07:27 AM 60.6°F15.9°C 58.3°F14.6°C 92% 1.0 mph SE1.6 kmh SE 1.0 mph1.6 kmh 29.80 in1009.1 mb 0.00 in0.0 mm 0.00 in0.0 mm 0.00 in0.0 mm
07:32 AM 60.7°F15.9°C 58.4°F14.7°C 92% Calm Calm -- 29.80 in1009.1 mb 0.00 in0.0 mm 0.00 in0.0 mm 0.00 in0.0 mm
07:37 AM 60.7°F15.9°C 58.4°F14.7°C 92% Calm Calm 6.0 mph9.7 kmh 29.80 in1009.1 mb 0.00 in0.0 mm 0.00 in0.0 mm 0.00 in0.0 mm
07:42 AM 60.7°F15.9°C 58.4°F14.7°C 92% Calm Calm 7.0 mph11.3 kmh 29.80 in1009.1 mb 0.00 in0.0 mm 0.00 in0.0 mm 0.00 in0.0 mm
07:47 AM 60.7°F15.9°C 58.4°F14.7°C 92% Calm Calm 9.0 mph14.5 kmh 29.80 in1009.1 mb 0.00 in0.0 mm 0.00 in0.0 mm 0.00 in0.0 mm
07:52 AM 60.8°F16.0°C 58.5°F14.7°C 92% Calm Calm 9.0 mph14.5 kmh 29.80 in1009.1 mb 0.00 in0.0 mm 0.00 in0.0 mm 0.00 in0.0 mm
07:57 AM 60.9°F16.1°C 58.6°F14.8°C 92% 6.0 mph S9.7 kmh S 9.0 mph14.5 kmh 29.80 in1009.1 mb 0.00 in0.0 mm 0.00 in0.0 mm 0.00 in0.0 mm
08:02 AM 60.9°F16.1°C 58.6°F14.8°C 92% 4.0 mph S6.4 kmh S 7.0 mph11.3 kmh 29.79 in1008.8 mb 0.00 in0.0 mm 0.00 in0.0 mm 0.00 in0.0 mm
08:07 AM 60.9°F16.1°C 58.6°F14.8°C 92% 5.0 mph S8.0 kmh S 5.0 mph8.0 kmh 29.79 in1008.8 mb 0.00 in0.0 mm 0.00 in0.0 mm 0.00 in0.0 mm
08:12 AM 61.0°F16.1°C 58.7°F14.8°C 92% 1.0 mph S1.6 kmh S 7.0 mph11.3 kmh 29.78 in1008.5 mb 0.00 in0.0 mm 0.00 in0.0 mm 0.00 in0.0 mm
08:17 AM 61.0°F16.1°C 58.7°F14.8°C 92% Calm Calm 7.0 mph11.3 kmh 29.78 in1008.5 mb 0.00 in0.0 mm 0.00 in0.0 mm 0.00 in0.0 mm
08:22 AM 61.0°F16.1°C 58.7°F14.8°C 92% Calm Calm 8.0 mph12.9 kmh 29.78 in1008.5 mb 0.00 in0.0 mm 0.00 in0.0 mm 0.00 in0.0 mm
08:27 AM 61.0°F16.1°C 58.7°F14.8°C 92% Calm Calm 10.0 mph16.1 kmh 29.77 in1008.1 mb 0.00 in0.0 mm 0.00 in0.0 mm 0.00 in0.0 mm
08:32 AM 61.1°F16.2°C 58.8°F14.9°C 92% Calm Calm 3.0 mph4.8 kmh 29.77 in1008.1 mb 0.00 in0.0 mm 0.00 in0.0 mm 0.00 in0.0 mm
08:37 AM 61.2°F16.2°C 58.9°F14.9°C 92% 1.0 mph S1.6 kmh S 8.0 mph12.9 kmh 29.77 in1008.1 mb 0.00 in0.0 mm 0.00 in0.0 mm 0.00 in0.0 mm
08:42 AM 61.3°F16.3°C 59.0°F15.0°C 92% 5.0 mph S8.0 kmh S 10.0 mph16.1 kmh 29.76 in1007.8 mb 0.00 in0.0 mm 0.00 in0.0 mm 0.00 in0.0 mm
08:47 AM 61.3°F16.3°C 59.0°F15.0°C 92% Calm Calm 2.0 mph3.2 kmh 29.75 in1007.5 mb 0.00 in0.0 mm 0.00 in0.0 mm 0.00 in0.0 mm
08:52 AM 61.4°F16.3°C 59.1°F15.1°C 92% Calm Calm 5.0 mph8.0 kmh 29.74 in1007.1 mb 0.00 in0.0 mm 0.00 in0.0 mm 0.00 in0.0 mm
08:57 AM 61.4°F16.3°C 59.1°F15.1°C 92% 2.0 mph S3.2 kmh S 6.0 mph9.7 kmh 29.73 in1006.8 mb 0.00 in0.0 mm 0.00 in0.0 mm 0.00 in0.0 mm
09:02 AM 61.4°F16.3°C 59.1°F15.1°C 92% Calm Calm -- 29.72 in1006.4 mb 0.00 in0.0 mm 0.00 in0.0 mm 0.00 in0.0 mm
09:07 AM 61.5°F16.4°C 59.2°F15.1°C 92% Calm Calm 3.0 mph4.8 kmh 29.72 in1006.4 mb 0.00 in0.0 mm 0.00 in0.0 mm 0.00 in0.0 mm
09:12 AM 61.5°F16.4°C 59.2°F15.1°C 92% Calm Calm 3.0 mph4.8 kmh 29.71 in1006.1 mb 0.00 in0.0 mm 0.00 in0.0 mm 0.00 in0.0 mm
09:17 AM 61.6°F16.4°C 59.2°F15.1°C 92% Calm Calm 5.0 mph8.0 kmh 29.71 in1006.1 mb 0.00 in0.0 mm 0.00 in0.0 mm 0.00 in0.0 mm
09:22 AM 61.7°F16.5°C 59.3°F15.2°C 92% 1.0 mph S1.6 kmh S 7.0 mph11.3 kmh 29.71 in1006.1 mb 0.00 in0.0 mm 0.00 in0.0 mm 0.00 in0.0 mm
09:27 AM 61.8°F16.6°C 59.4°F15.2°C 92% 2.0 mph S3.2 kmh S 7.0 mph11.3 kmh 29.71 in1006.1 mb 0.00 in0.0 mm 0.00 in0.0 mm 0.00 in0.0 mm
09:32 AM 61.8°F16.6°C 59.4°F15.2°C 92% 6.0 mph SE9.7 kmh SE 10.0 mph16.1 kmh 29.71 in1006.1 mb 0.00 in0.0 mm 0.00 in0.0 mm 0.00 in0.0 mm
09:37 AM 61.8°F16.6°C 59.4°F15.2°C 92% 1.0 mph ESE1.6 kmh ESE 10.0 mph16.1 kmh 29.71 in1006.1 mb 0.00 in0.0 mm 0.00 in0.0 mm 0.00 in0.0 mm
09:42 AM 61.7°F16.5°C 59.3°F15.2°C 92% Calm Calm 8.0 mph12.9 kmh 29.70 in1005.8 mb 0.00 in0.0 mm 0.00 in0.0 mm 0.00 in0.0 mm
09:47 AM 61.7°F16.5°C 59.3°F15.2°C 92% Calm Calm 9.0 mph14.5 kmh 29.71 in1006.1 mb 0.00 in0.0 mm 0.00 in0.0 mm 0.00 in0.0 mm
09:52 AM 61.6°F16.4°C 59.2°F15.1°C 92% Calm Calm 9.0 mph14.5 kmh 29.71 in1006.1 mb 0.00 in0.0 mm 0.00 in0.0 mm 0.00 in0.0 mm
09:57 AM 61.3°F16.3°C 58.6°F14.8°C 91% 5.0 mph SE8.0 kmh SE 12.0 mph19.3 kmh 29.71 in1006.1 mb 0.00 in0.0 mm 0.00 in0.0 mm 0.01 in0.3 mm
10:02 AM 61.2°F16.2°C 58.5°F14.7°C 91% 2.0 mph SSE3.2 kmh SSE 12.0 mph19.3 kmh 29.69 in1005.4 mb 0.16 in4.1 mm 0.17 in4.3 mm 0.02 in0.5 mm
10:07 AM 60.9°F16.1°C 58.3°F14.6°C 91% 1.0 mph S1.6 kmh S 12.0 mph19.3 kmh 29.68 in1005.1 mb 0.41 in10.4 mm 3.00 in76.2 mm 0.04 in1.0 mm
10:12 AM 60.5°F15.8°C 57.9°F14.4°C 91% Calm Calm 12.0 mph19.3 kmh 29.68 in1005.1 mb 0.36 in9.1 mm 0.00 in0.0 mm 0.08 in2.0 mm
10:17 AM 60.1°F15.6°C 57.5°F14.2°C 91% Calm Calm 6.0 mph9.7 kmh 29.68 in1005.1 mb 0.20 in5.1 mm 0.00 in0.0 mm 0.10 in2.5 mm
10:22 AM 59.8°F15.4°C 57.2°F14.0°C 91% Calm Calm -- 29.69 in1005.4 mb 0.16 in4.1 mm 0.00 in0.0 mm 0.12 in3.0 mm
10:27 AM 59.7°F15.4°C 57.4°F14.1°C 92% Calm Calm -- 29.68 in1005.1 mb 0.29 in7.4 mm 1.56 in39.6 mm 0.14 in3.6 mm
10:32 AM 59.5°F15.3°C 57.2°F14.0°C 92% Calm Calm -- 29.67 in1004.7 mb 0.36 in9.1 mm 0.84 in21.3 mm 0.17 in4.3 mm
10:37 AM 59.4°F15.2°C 57.1°F13.9°C 92% Calm Calm -- 29.66 in1004.4 mb 0.32 in8.1 mm 0.00 in0.0 mm 0.20 in5.1 mm
10:42 AM 59.3°F15.2°C 57.0°F13.9°C 92% Calm Calm -- 29.66 in1004.4 mb 0.42 in10.7 mm 1.20 in30.5 mm 0.22 in5.6 mm
10:47 AM 59.1°F15.1°C 56.8°F13.8°C 92% Calm Calm -- 29.66 in1004.4 mb 0.35 in8.9 mm 0.00 in0.0 mm 0.25 in6.4 mm
10:52 AM 58.9°F14.9°C 56.6°F13.7°C 92% Calm Calm -- 29.65 in1004.1 mb 0.39 in9.9 mm 0.48 in12.2 mm 0.28 in7.1 mm
10:57 AM 58.7°F14.8°C 56.4°F13.6°C 92% Calm Calm -- 29.65 in1004.1 mb 0.49 in12.4 mm 1.20 in30.5 mm 0.31 in7.9 mm
11:02 AM 58.7°F14.8°C 56.4°F13.6°C 92% Calm Calm -- 29.64 in1003.7 mb 0.40 in10.2 mm 0.00 in0.0 mm 0.35 in8.9 mm
11:07 AM 58.5°F14.7°C 56.2°F13.4°C 92% Calm Calm -- 29.64 in1003.7 mb 0.30 in7.6 mm 0.00 in0.0 mm 0.38 in9.7 mm
11:12 AM 58.4°F14.7°C 56.1°F13.4°C 92% Calm Calm -- 29.63 in1003.4 mb 0.55 in14.0 mm 3.00 in76.2 mm 0.40 in10.2 mm
11:17 AM 58.2°F14.6°C 55.9°F13.3°C 92% Calm Calm -- 29.62 in1003.0 mb 0.44 in11.2 mm 0.00 in0.0 mm 0.44 in11.2 mm
11:22 AM 58.1°F14.5°C 55.8°F13.2°C 92% Calm Calm -- 29.63 in1003.4 mb 0.32 in8.1 mm 0.00 in0.0 mm 0.47 in11.9 mm
11:27 AM 58.0°F14.4°C 55.7°F13.2°C 92% Calm Calm 3.0 mph4.8 kmh 29.63 in1003.4 mb 0.51 in13.0 mm 2.28 in57.9 mm 0.49 in12.4 mm
11:32 AM 57.7°F14.3°C 55.7°F13.2°C 93% Calm Calm 5.0 mph8.0 kmh 29.63 in1003.4 mb 0.70 in17.8 mm 2.28 in57.9 mm 0.53 in13.5 mm
11:37 AM 57.5°F14.2°C 55.2°F12.9°C 92% Calm Calm -- 29.63 in1003.4 mb 0.67 in17.0 mm 0.00 in0.0 mm 0.58 in14.7 mm
11:42 AM 57.1°F13.9°C 55.1°F12.8°C 93% Calm Calm -- 29.63 in1003.4 mb 0.52 in13.2 mm 0.00 in0.0 mm 0.63 in16.0 mm
11:47 AM 56.8°F13.8°C 54.5°F12.5°C 92% Calm Calm -- 29.63 in1003.4 mb 0.40 in10.2 mm 0.00 in0.0 mm 0.67 in17.0 mm
11:52 AM 56.6°F13.7°C 54.6°F12.6°C 93% Calm Calm -- 29.62 in1003.0 mb 0.55 in14.0 mm 1.80 in45.7 mm 0.70 in17.8 mm
11:57 AM 56.4°F13.6°C 54.4°F12.4°C 93% Calm Calm -- 29.62 in1003.0 mb 0.47 in11.9 mm 0.00 in0.0 mm 0.74 in18.8 mm
12:02 PM 56.4°F13.6°C 54.4°F12.4°C 93% Calm Calm -- 29.62 in1003.0 mb 0.37 in9.4 mm 0.00 in0.0 mm 0.77 in19.6 mm
12:07 PM 56.2°F13.4°C 54.2°F12.3°C 93% Calm Calm -- 29.61 in1002.7 mb 0.37 in9.4 mm 0.00 in0.0 mm 0.81 in20.6 mm
12:12 PM 56.2°F13.4°C 54.2°F12.3°C 93% Calm Calm -- 29.60 in1002.4 mb 0.48 in12.2 mm 1.32 in33.5 mm 0.84 in21.3 mm
12:17 PM 56.2°F13.4°C 54.2°F12.3°C 93% Calm Calm -- 29.60 in1002.4 mb 0.55 in14.0 mm 0.84 in21.3 mm 0.88 in22.4 mm
12:22 PM 56.1°F13.4°C 54.1°F12.3°C 93% Calm Calm 2.0 mph3.2 kmh 29.59 in1002.0 mb 0.67 in17.0 mm 1.44 in36.6 mm 0.92 in23.4 mm
12:27 PM 56.0°F13.3°C 54.0°F12.2°C 93% Calm Calm -- 29.59 in1002.0 mb 0.73 in18.5 mm 0.72 in18.3 mm 0.95 in24.1 mm
12:32 PM 56.0°F13.3°C 54.0°F12.2°C 93% Calm Calm -- 29.59 in1002.0 mb 0.63 in16.0 mm 0.00 in0.0 mm 1.02 in25.9 mm
12:37 PM 56.0°F13.3°C 54.0°F12.2°C 93% Calm Calm 5.0 mph8.0 kmh 29.58 in1001.7 mb 0.40 in10.2 mm 0.00 in0.0 mm 1.07 in27.2 mm
12:42 PM 56.0°F13.3°C 54.0°F12.2°C 93% Calm Calm 1.0 mph1.6 kmh 29.58 in1001.7 mb 0.44 in11.2 mm 0.48 in12.2 mm 1.11 in28.2 mm
12:47 PM 56.0°F13.3°C 54.0°F12.2°C 93% Calm Calm -- 29.58 in1001.7 mb 0.34 in8.6 mm 0.00 in0.0 mm 1.14 in29.0 mm
12:52 PM 56.1°F13.4°C 54.1°F12.3°C 93% Calm Calm -- 29.57 in1001.4 mb 0.43 in10.9 mm 1.08 in27.4 mm 1.18 in30.0 mm
12:57 PM 56.2°F13.4°C 54.2°F12.3°C 93% Calm Calm -- 29.56 in1001.0 mb 0.38 in9.7 mm 0.00 in0.0 mm 1.21 in30.7 mm
01:02 PM 56.3°F13.5°C 54.3°F12.4°C 93% Calm Calm -- 29.55 in1000.7 mb 0.22 in5.6 mm 0.00 in0.0 mm 1.24 in31.5 mm
01:07 PM 56.1°F13.4°C 54.1°F12.3°C 93% Calm Calm 3.0 mph4.8 kmh 29.55 in1000.7 mb 0.20 in5.1 mm 0.00 in0.0 mm 1.26 in32.0 mm
01:12 PM 56.0°F13.3°C 54.0°F12.2°C 93% Calm Calm -- 29.56 in1001.0 mb 0.15 in3.8 mm 0.00 in0.0 mm 1.27 in32.3 mm
01:17 PM 55.9°F13.3°C 53.9°F12.2°C 93% Calm Calm -- 29.55 in1000.7 mb 0.11 in2.8 mm 0.00 in0.0 mm 1.28 in32.5 mm
01:22 PM 55.9°F13.3°C 53.9°F12.2°C 93% Calm Calm 4.0 mph6.4 kmh 29.54 in1000.3 mb 0.23 in5.8 mm 1.44 in36.6 mm 1.30 in33.0 mm
01:27 PM 55.8°F13.2°C 53.8°F12.1°C 93% Calm Calm 2.0 mph3.2 kmh 29.54 in1000.3 mb 0.17 in4.3 mm 0.00 in0.0 mm 1.31 in33.3 mm
01:32 PM 55.8°F13.2°C 53.8°F12.1°C 93% Calm Calm -- 29.53 in1000.0 mb 0.26 in6.6 mm 1.08 in27.4 mm 1.33 in33.8 mm
01:37 PM 55.8°F13.2°C 53.8°F12.1°C 93% Calm Calm -- 29.53 in1000.0 mb 0.14 in3.6 mm 0.00 in0.0 mm 1.34 in34.0 mm
01:42 PM 55.9°F13.3°C 53.9°F12.2°C 93% Calm Calm 2.0 mph3.2 kmh 29.53 in1000.0 mb 0.09 in2.3 mm 0.00 in0.0 mm 1.35 in34.3 mm
01:47 PM 55.9°F13.3°C 53.9°F12.2°C 93% Calm Calm 4.0 mph6.4 kmh 29.51 in999.3 mb 0.07 in1.8 mm 0.00 in0.0 mm 1.36 in34.5 mm
01:52 PM 55.9°F13.3°C 53.9°F12.2°C 93% Calm Calm -- 29.51 in999.3 mb 0.07 in1.8 mm 0.00 in0.0 mm 1.36 in34.5 mm
01:57 PM 56.0°F13.3°C 54.0°F12.2°C 93% Calm Calm 3.0 mph4.8 kmh 29.52 in999.7 mb 0.06 in1.5 mm 0.00 in0.0 mm 1.37 in34.8 mm
02:02 PM 56.1°F13.4°C 54.1°F12.3°C 93% 2.0 mph NNW3.2 kmh NNW 2.0 mph3.2 kmh 29.51 in999.3 mb 0.06 in1.5 mm 0.00 in0.0 mm 1.37 in34.8 mm
02:07 PM 56.0°F13.3°C 54.0°F12.2°C 93% Calm Calm 5.0 mph8.0 kmh 29.50 in999.0 mb 0.05 in1.3 mm 0.00 in0.0 mm 1.37 in34.8 mm
02:12 PM 56.1°F13.4°C 54.1°F12.3°C 93% Calm Calm 3.0 mph4.8 kmh 29.49 in998.6 mb 0.00 in0.0 mm 0.00 in0.0 mm 1.37 in34.8 mm
02:17 PM 56.2°F13.4°C 54.2°F12.3°C 93% Calm Calm 1.0 mph1.6 kmh 29.49 in998.6 mb 0.00 in0.0 mm 0.00 in0.0 mm 1.37 in34.8 mm
02:22 PM 56.3°F13.5°C 54.3°F12.4°C 93% Calm Calm -- 29.49 in998.6 mb 0.00 in0.0 mm 0.00 in0.0 mm 1.37 in34.8 mm
02:27 PM 56.4°F13.6°C 54.4°F12.4°C 93% Calm Calm -- 29.49 in998.6 mb 0.00 in0.0 mm 0.00 in0.0 mm 1.37 in34.8 mm
02:32 PM 56.6°F13.7°C 54.6°F12.6°C 93% Calm Calm -- 29.50 in999.0 mb 0.00 in0.0 mm 0.00 in0.0 mm 1.37 in34.8 mm
02:37 PM 56.5°F13.6°C 54.5°F12.5°C 93% Calm Calm 7.0 mph11.3 kmh 29.50 in999.0 mb 0.00 in0.0 mm 0.00 in0.0 mm 1.37 in34.8 mm
02:42 PM 56.5°F13.6°C 54.5°F12.5°C 93% 3.0 mph NNW4.8 kmh NNW 7.0 mph11.3 kmh 29.49 in998.6 mb 0.00 in0.0 mm 0.00 in0.0 mm 1.37 in34.8 mm
02:47 PM 56.6°F13.7°C 54.6°F12.6°C 93% 3.0 mph N4.8 kmh N 4.0 mph6.4 kmh 29.50 in999.0 mb 0.00 in0.0 mm 0.00 in0.0 mm 1.37 in34.8 mm
02:52 PM 56.6°F13.7°C 54.6°F12.6°C 93% 4.0 mph N6.4 kmh N 12.0 mph19.3 kmh 29.50 in999.0 mb 0.00 in0.0 mm 0.00 in0.0 mm 1.37 in34.8 mm
02:57 PM 56.5°F13.6°C 54.5°F12.5°C 93% 3.0 mph NW4.8 kmh NW 12.0 mph19.3 kmh 29.50 in999.0 mb 0.00 in0.0 mm 0.00 in0.0 mm 1.38 in35.1 mm
03:02 PM 56.4°F13.6°C 54.4°F12.4°C 93% 1.0 mph NW1.6 kmh NW 12.0 mph19.3 kmh 29.50 in999.0 mb 0.00 in0.0 mm 0.00 in0.0 mm 1.38 in35.1 mm
03:07 PM 56.3°F13.5°C 54.3°F12.4°C 93% 3.0 mph N4.8 kmh N 8.0 mph12.9 kmh 29.50 in999.0 mb 0.00 in0.0 mm 0.00 in0.0 mm 1.38 in35.1 mm
03:12 PM 55.9°F13.3°C 53.9°F12.2°C 93% 2.0 mph NNW3.2 kmh NNW 8.0 mph12.9 kmh 29.50 in999.0 mb 0.00 in0.0 mm 0.00 in0.0 mm 1.38 in35.1 mm
03:17 PM 56.1°F13.4°C 54.1°F12.3°C 93% 3.0 mph N4.8 kmh N 8.0 mph12.9 kmh 29.49 in998.6 mb 0.00 in0.0 mm 0.00 in0.0 mm 1.38 in35.1 mm
03:22 PM 55.8°F13.2°C 53.8°F12.1°C 93% 2.0 mph NW3.2 kmh NW 10.0 mph16.1 kmh 29.49 in998.6 mb 0.00 in0.0 mm 0.00 in0.0 mm 1.38 in35.1 mm
03:27 PM 55.8°F13.2°C 53.8°F12.1°C 93% 5.0 mph NNW8.0 kmh NNW 10.0 mph16.1 kmh 29.48 in998.3 mb 0.00 in0.0 mm 0.00 in0.0 mm 1.38 in35.1 mm
03:32 PM 55.7°F13.2°C 53.7°F12.1°C 93% 6.0 mph NW9.7 kmh NW 10.0 mph16.1 kmh 29.49 in998.6 mb 0.00 in0.0 mm 0.00 in0.0 mm 1.38 in35.1 mm
03:37 PM 55.7°F13.2°C 53.7°F12.1°C 93% 1.0 mph NNW1.6 kmh NNW 11.0 mph17.7 kmh 29.48 in998.3 mb 0.00 in0.0 mm 0.00 in0.0 mm 1.38 in35.1 mm
03:42 PM 55.8°F13.2°C 53.8°F12.1°C 93% 2.0 mph NNW3.2 kmh NNW 11.0 mph17.7 kmh 29.49 in998.6 mb 0.00 in0.0 mm 0.00 in0.0 mm 1.38 in35.1 mm
03:47 PM 55.7°F13.2°C 53.7°F12.1°C 93% Calm Calm 9.0 mph14.5 kmh 29.49 in998.6 mb 0.00 in0.0 mm 0.00 in0.0 mm 1.38 in35.1 mm
03:52 PM 55.9°F13.3°C 53.9°F12.2°C 93% 5.0 mph NNW8.0 kmh NNW 19.0 mph30.6 kmh 29.49 in998.6 mb 0.00 in0.0 mm 0.00 in0.0 mm 1.38 in35.1 mm
03:57 PM 56.2°F13.4°C 54.2°F12.3°C 93% 8.0 mph NW12.9 kmh NW 19.0 mph30.6 kmh 29.49 in998.6 mb 0.00 in0.0 mm 0.00 in0.0 mm 1.38 in35.1 mm
04:02 PM 56.2°F13.4°C 54.2°F12.3°C 93% 7.0 mph N11.3 kmh N 19.0 mph30.6 kmh 29.49 in998.6 mb 0.00 in0.0 mm 0.00 in0.0 mm 1.38 in35.1 mm
04:07 PM 56.3°F13.5°C 54.3°F12.4°C 93% Calm Calm 19.0 mph30.6 kmh 29.48 in998.3 mb 0.00 in0.0 mm 0.00 in0.0 mm 1.38 in35.1 mm
04:12 PM 56.3°F13.5°C 54.3°F12.4°C 93% 6.0 mph NW9.7 kmh NW 11.0 mph17.7 kmh 29.48 in998.3 mb 0.00 in0.0 mm 0.00 in0.0 mm 1.38 in35.1 mm
04:17 PM 56.3°F13.5°C 54.3°F12.4°C 93% 6.0 mph NNW9.7 kmh NNW 11.0 mph17.7 kmh 29.49 in998.6 mb 0.00 in0.0 mm 0.00 in0.0 mm 1.38 in35.1 mm
04:22 PM 56.3°F13.5°C 54.0°F12.2°C 92% 8.0 mph NNW12.9 kmh NNW 12.0 mph19.3 kmh 29.49 in998.6 mb 0.00 in0.0 mm 0.00 in0.0 mm 1.38 in35.1 mm
04:27 PM 56.3°F13.5°C 54.0°F12.2°C 92% 1.0 mph NW1.6 kmh NW 14.0 mph22.5 kmh 29.49 in998.6 mb 0.00 in0.0 mm 0.00 in0.0 mm 1.38 in35.1 mm
04:32 PM 56.2°F13.4°C 53.9°F12.2°C 92% 5.0 mph NW8.0 kmh NW 14.0 mph22.5 kmh 29.49 in998.6 mb 0.00 in0.0 mm 0.00 in0.0 mm 1.38 in35.1 mm
04:37 PM 56.1°F13.4°C 53.8°F12.1°C 92% Calm Calm 14.0 mph22.5 kmh 29.49 in998.6 mb 0.00 in0.0 mm 0.00 in0.0 mm 1.38 in35.1 mm
04:42 PM 56.0°F13.3°C 53.7°F12.1°C 92% 8.0 mph NW12.9 kmh NW 15.0 mph24.1 kmh 29.50 in999.0 mb 0.00 in0.0 mm 0.00 in0.0 mm 1.38 in35.1 mm
04:47 PM 56.1°F13.4°C 53.5°F11.9°C 91% 10.0 mph NW16.1 kmh NW 15.0 mph24.1 kmh 29.50 in999.0 mb 0.00 in0.0 mm 0.00 in0.0 mm 1.38 in35.1 mm
04:52 PM 56.0°F13.3°C 53.1°F11.7°C 90% 6.0 mph N9.7 kmh N 17.0 mph27.4 kmh 29.50 in999.0 mb 0.00 in0.0 mm 0.00 in0.0 mm 1.38 in35.1 mm
04:57 PM 55.9°F13.3°C 52.4°F11.3°C 88% 2.0 mph NW3.2 kmh NW 17.0 mph27.4 kmh 29.49 in998.6 mb 0.00 in0.0 mm 0.00 in0.0 mm 1.38 in35.1 mm
05:02 PM 55.5°F13.1°C 50.7°F10.4°C 84% 6.0 mph N9.7 kmh N 21.0 mph33.8 kmh 29.49 in998.6 mb 0.00 in0.0 mm 0.00 in0.0 mm 1.38 in35.1 mm
05:07 PM 55.4°F13.0°C 50.0°F10.0°C 82% 5.0 mph NW8.0 kmh NW 21.0 mph33.8 kmh 29.49 in998.6 mb 0.00 in0.0 mm 0.00 in0.0 mm 1.38 in35.1 mm
05:12 PM 55.2°F12.9°C 49.1°F9.5°C 80% 7.0 mph W11.3 kmh W 21.0 mph33.8 kmh 29.49 in998.6 mb 0.00 in0.0 mm 0.00 in0.0 mm 1.38 in35.1 mm
05:17 PM 55.1°F12.8°C 48.4°F9.1°C 78% 12.0 mph NW19.3 kmh NW 21.0 mph33.8 kmh 29.50 in999.0 mb 0.00 in0.0 mm 0.00 in0.0 mm 1.38 in35.1 mm
05:22 PM 55.1°F12.8°C 48.0°F8.9°C 77% 3.0 mph NW4.8 kmh NW 19.0 mph30.6 kmh 29.50 in999.0 mb 0.00 in0.0 mm 0.00 in0.0 mm 1.38 in35.1 mm
05:27 PM 55.0°F12.8°C 47.6°F8.7°C 76% 4.0 mph ENE6.4 kmh ENE 19.0 mph30.6 kmh 29.50 in999.0 mb 0.00 in0.0 mm 0.00 in0.0 mm 1.38 in35.1 mm
05:32 PM 55.0°F12.8°C 47.6°F8.7°C 76% 1.0 mph NW1.6 kmh NW 15.0 mph24.1 kmh 29.51 in999.3 mb 0.00 in0.0 mm 0.00 in0.0 mm 1.38 in35.1 mm
05:37 PM 54.9°F12.7°C 47.1°F8.4°C 75% 4.0 mph WSW6.4 kmh WSW 15.0 mph24.1 kmh 29.51 in999.3 mb 0.00 in0.0 mm 0.00 in0.0 mm 1.38 in35.1 mm
05:42 PM 54.9°F12.7°C 47.1°F8.4°C 75% 6.0 mph N9.7 kmh N 14.0 mph22.5 kmh 29.51 in999.3 mb 0.00 in0.0 mm 0.00 in0.0 mm 1.38 in35.1 mm
05:47 PM 54.6°F12.6°C 46.5°F8.1°C 74% 2.0 mph NW3.2 kmh NW 16.0 mph25.7 kmh 29.51 in999.3 mb 0.00 in0.0 mm 0.00 in0.0 mm 1.38 in35.1 mm
05:52 PM 54.6°F12.6°C 46.5°F8.1°C 74% 1.0 mph NW1.6 kmh NW 16.0 mph25.7 kmh 29.51 in999.3 mb 0.00 in0.0 mm 0.00 in0.0 mm 1.38 in35.1 mm
05:57 PM 54.4°F12.4°C 46.3°F7.9°C 74% 3.0 mph W4.8 kmh W 19.0 mph30.6 kmh 29.51 in999.3 mb 0.00 in0.0 mm 0.00 in0.0 mm 1.38 in35.1 mm
06:02 PM 54.2°F12.3°C 46.1°F7.8°C 74% 5.0 mph N8.0 kmh N 19.0 mph30.6 kmh 29.51 in999.3 mb 0.00 in0.0 mm 0.00 in0.0 mm 1.38 in35.1 mm
06:07 PM 54.1°F12.3°C 46.0°F7.8°C 74% 2.0 mph WSW3.2 kmh WSW 19.0 mph30.6 kmh 29.51 in999.3 mb 0.00 in0.0 mm 0.00 in0.0 mm 1.38 in35.1 mm
06:12 PM 54.0°F12.2°C 45.9°F7.7°C 74% 1.0 mph NNW1.6 kmh NNW 19.0 mph30.6 kmh 29.51 in999.3 mb 0.00 in0.0 mm 0.00 in0.0 mm 1.38 in35.1 mm
06:17 PM 53.9°F12.2°C 45.4°F7.4°C 73% 3.0 mph N4.8 kmh N 18.0 mph29.0 kmh 29.52 in999.7 mb 0.00 in0.0 mm 0.00 in0.0 mm 1.38 in35.1 mm
06:22 PM 53.8°F12.1°C 45.3°F7.4°C 73% 7.0 mph NNW11.3 kmh NNW 18.0 mph29.0 kmh 29.51 in999.3 mb 0.00 in0.0 mm 0.00 in0.0 mm 1.38 in35.1 mm
06:27 PM 53.8°F12.1°C 45.3°F7.4°C 73% 3.0 mph NNW4.8 kmh NNW 18.0 mph29.0 kmh 29.51 in999.3 mb 0.00 in0.0 mm 0.00 in0.0 mm 1.38 in35.1 mm
06:32 PM 53.8°F12.1°C 45.0°F7.2°C 72% 5.0 mph N8.0 kmh N 18.0 mph29.0 kmh 29.52 in999.7 mb 0.00 in0.0 mm 0.00 in0.0 mm 1.38 in35.1 mm
06:37 PM 53.8°F12.1°C 45.0°F7.2°C 72% Calm Calm 11.0 mph17.7 kmh 29.51 in999.3 mb 0.00 in0.0 mm 0.00 in0.0 mm 1.38 in35.1 mm
06:42 PM 53.7°F12.1°C 44.9°F7.2°C 72% 4.0 mph W6.4 kmh W 14.0 mph22.5 kmh 29.51 in999.3 mb 0.00 in0.0 mm 0.00 in0.0 mm 1.38 in35.1 mm
06:47 PM 53.7°F12.1°C 44.9°F7.2°C 72% 4.0 mph 6.4 kmh 14.0 mph22.5 kmh 29.51 in999.3 mb 0.00 in0.0 mm 0.00 in0.0 mm 1.38 in35.1 mm
06:52 PM 53.8°F12.1°C 45.0°F7.2°C 72% 9.0 mph NW14.5 kmh NW 20.0 mph32.2 kmh 29.51 in999.3 mb 0.00 in0.0 mm 0.00 in0.0 mm 1.38 in35.1 mm
06:57 PM 53.7°F12.1°C 44.9°F7.2°C 72% 4.0 mph NW6.4 kmh NW 20.0 mph32.2 kmh 29.52 in999.7 mb 0.00 in0.0 mm 0.00 in0.0 mm 1.38 in35.1 mm
07:02 PM 53.7°F12.1°C 44.9°F7.2°C 72% 4.0 mph W6.4 kmh W 20.0 mph32.2 kmh 29.51 in999.3 mb 0.00 in0.0 mm 0.00 in0.0 mm 1.38 in35.1 mm
07:07 PM 53.9°F12.2°C 44.7°F7.1°C 71% 4.0 mph W6.4 kmh W 20.0 mph32.2 kmh 29.51 in999.3 mb 0.00 in0.0 mm 0.00 in0.0 mm 1.38 in35.1 mm
07:12 PM 53.9°F12.2°C 44.7°F7.1°C 71% 3.0 mph NW4.8 kmh NW 14.0 mph22.5 kmh 29.52 in999.7 mb 0.00 in0.0 mm 0.00 in0.0 mm 1.38 in35.1 mm
07:17 PM 53.9°F12.2°C 44.7°F7.1°C 71% 4.0 mph WNW6.4 kmh WNW 14.0 mph22.5 kmh 29.52 in999.7 mb 0.00 in0.0 mm 0.00 in0.0 mm 1.38 in35.1 mm
07:22 PM 54.0°F12.2°C 44.4°F6.9°C 70% 6.0 mph NNW9.7 kmh NNW 15.0 mph24.1 kmh 29.52 in999.7 mb 0.00 in0.0 mm 0.00 in0.0 mm 1.38 in35.1 mm
07:27 PM 54.0°F12.2°C 44.4°F6.9°C 70% 5.0 mph NW8.0 kmh NW 15.0 mph24.1 kmh 29.52 in999.7 mb 0.00 in0.0 mm 0.00 in0.0 mm 1.38 in35.1 mm
07:32 PM 54.0°F12.2°C 44.4°F6.9°C 70% Calm Calm 15.0 mph24.1 kmh 29.52 in999.7 mb 0.00 in0.0 mm 0.00 in0.0 mm 1.38 in35.1 mm
07:37 PM 54.1°F12.3°C 44.2°F6.8°C 69% Calm Calm 24.0 mph38.6 kmh 29.52 in999.7 mb 0.00 in0.0 mm 0.00 in0.0 mm 1.38 in35.1 mm
07:42 PM 54.0°F12.2°C 44.1°F6.7°C 69% 3.0 mph NW4.8 kmh NW 24.0 mph38.6 kmh 29.52 in999.7 mb 0.00 in0.0 mm 0.00 in0.0 mm 1.38 in35.1 mm
07:47 PM 53.9°F12.2°C 44.0°F6.7°C 69% 4.0 mph WNW6.4 kmh WNW 24.0 mph38.6 kmh 29.53 in1000.0 mb 0.00 in0.0 mm 0.00 in0.0 mm 1.38 in35.1 mm
07:52 PM 54.1°F12.3°C 43.8°F6.6°C 68% 5.0 mph NW8.0 kmh NW 24.0 mph38.6 kmh 29.53 in1000.0 mb 0.00 in0.0 mm 0.00 in0.0 mm 1.38 in35.1 mm
07:57 PM 54.2°F12.3°C 43.5°F6.4°C 67% 3.0 mph SSE4.8 kmh SSE 19.0 mph30.6 kmh 29.54 in1000.3 mb 0.00 in0.0 mm 0.00 in0.0 mm 1.38 in35.1 mm
08:02 PM 54.2°F12.3°C 43.5°F6.4°C 67% 8.0 mph NW12.9 kmh NW 19.0 mph30.6 kmh 29.54 in1000.3 mb 0.00 in0.0 mm 0.00 in0.0 mm 1.38 in35.1 mm
08:07 PM 54.2°F12.3°C 43.5°F6.4°C 67% 9.0 mph WNW14.5 kmh WNW 17.0 mph27.4 kmh 29.54 in1000.3 mb 0.00 in0.0 mm 0.00 in0.0 mm 1.38 in35.1 mm
08:12 PM 54.1°F12.3°C 43.4°F6.3°C 67% 4.0 mph NW6.4 kmh NW 17.0 mph27.4 kmh 29.54 in1000.3 mb 0.00 in0.0 mm 0.00 in0.0 mm 1.38 in35.1 mm
08:17 PM 54.0°F12.2°C 42.1°F5.6°C 64% 3.0 mph WNW4.8 kmh WNW 28.0 mph45.1 kmh 29.54 in1000.3 mb 0.00 in0.0 mm 0.00 in0.0 mm 1.38 in35.1 mm
08:22 PM 53.7°F12.1°C 41.8°F5.4°C 64% 8.0 mph NW12.9 kmh NW 28.0 mph45.1 kmh 29.55 in1000.7 mb 0.00 in0.0 mm 0.00 in0.0 mm 1.38 in35.1 mm
08:27 PM 53.4°F11.9°C 41.9°F5.5°C 65% 11.0 mph NW17.7 kmh NW 28.0 mph45.1 kmh 29.54 in1000.3 mb 0.00 in0.0 mm 0.00 in0.0 mm 1.38 in35.1 mm
08:32 PM 53.2°F11.8°C 41.7°F5.4°C 65% 5.0 mph N8.0 kmh N 28.0 mph45.1 kmh 29.54 in1000.3 mb 0.00 in0.0 mm 0.00 in0.0 mm 1.38 in35.1 mm
08:37 PM 53.0°F11.7°C 41.6°F5.3°C 65% 1.0 mph NW1.6 kmh NW 21.0 mph33.8 kmh 29.54 in1000.3 mb 0.00 in0.0 mm 0.00 in0.0 mm 1.38 in35.1 mm
08:42 PM 53.0°F11.7°C 40.7°F4.8°C 63% 14.0 mph N22.5 kmh N 25.0 mph40.2 kmh 29.55 in1000.7 mb 0.00 in0.0 mm 0.00 in0.0 mm 1.38 in35.1 mm
08:47 PM 53.0°F11.7°C 40.7°F4.8°C 63% 12.0 mph WSW19.3 kmh WSW 25.0 mph40.2 kmh 29.55 in1000.7 mb 0.00 in0.0 mm 0.00 in0.0 mm 1.38 in35.1 mm
08:52 PM 52.8°F11.6°C 40.6°F4.8°C 63% 6.0 mph NNW9.7 kmh NNW 25.0 mph40.2 kmh 29.55 in1000.7 mb 0.00 in0.0 mm 0.00 in0.0 mm 1.38 in35.1 mm
08:57 PM 52.6°F11.4°C 40.4°F4.7°C 63% 5.0 mph NW8.0 kmh NW 25.0 mph40.2 kmh 29.55 in1000.7 mb 0.00 in0.0 mm 0.00 in0.0 mm 1.38 in35.1 mm
09:02 PM 52.3°F11.3°C 40.5°F4.7°C 64% Calm Calm 14.0 mph22.5 kmh 29.55 in1000.7 mb 0.00 in0.0 mm 0.00 in0.0 mm 1.38 in35.1 mm
09:07 PM 52.2°F11.2°C 40.4°F4.7°C 64% 2.0 mph NW3.2 kmh NW 15.0 mph24.1 kmh 29.55 in1000.7 mb 0.00 in0.0 mm 0.00 in0.0 mm 1.38 in35.1 mm
09:12 PM 52.2°F11.2°C 40.4°F4.7°C 64% 1.0 mph NW1.6 kmh NW 15.0 mph24.1 kmh 29.55 in1000.7 mb 0.00 in0.0 mm 0.00 in0.0 mm 1.38 in35.1 mm
09:17 PM 52.1°F11.2°C 40.3°F4.6°C 64% 9.0 mph NNW14.5 kmh NNW 21.0 mph33.8 kmh 29.55 in1000.7 mb 0.00 in0.0 mm 0.00 in0.0 mm 1.38 in35.1 mm
09:22 PM 52.1°F11.2°C 40.3°F4.6°C 64% 3.0 mph NNW4.8 kmh NNW 21.0 mph33.8 kmh 29.55 in1000.7 mb 0.00 in0.0 mm 0.00 in0.0 mm 1.38 in35.1 mm
09:27 PM 51.9°F11.1°C 40.5°F4.7°C 65% Calm Calm 21.0 mph33.8 kmh 29.55 in1000.7 mb 0.00 in0.0 mm 0.00 in0.0 mm 1.38 in35.1 mm
09:32 PM 51.7°F10.9°C 40.3°F4.6°C 65% 12.0 mph W19.3 kmh W 21.0 mph33.8 kmh 29.55 in1000.7 mb 0.00 in0.0 mm 0.00 in0.0 mm 1.38 in35.1 mm
09:37 PM 52.0°F11.1°C 40.2°F4.6°C 64% 7.0 mph N11.3 kmh N 19.0 mph30.6 kmh 29.54 in1000.3 mb 0.00 in0.0 mm 0.00 in0.0 mm 1.38 in35.1 mm
09:42 PM 51.9°F11.1°C 40.1°F4.5°C 64% 2.0 mph WSW3.2 kmh WSW 19.0 mph30.6 kmh 29.55 in1000.7 mb 0.00 in0.0 mm 0.00 in0.0 mm 1.38 in35.1 mm
09:47 PM 51.9°F11.1°C 40.1°F4.5°C 64% 1.0 mph W1.6 kmh W 16.0 mph25.7 kmh 29.55 in1000.7 mb 0.00 in0.0 mm 0.00 in0.0 mm 1.38 in35.1 mm
09:52 PM 51.8°F11.0°C 40.0°F4.4°C 64% 3.0 mph NW4.8 kmh NW 16.0 mph25.7 kmh 29.55 in1000.7 mb 0.00 in0.0 mm 0.00 in0.0 mm 1.38 in35.1 mm
09:57 PM 51.8°F11.0°C 40.0°F4.4°C 64% Calm Calm 15.0 mph24.1 kmh 29.55 in1000.7 mb 0.00 in0.0 mm 0.00 in0.0 mm 1.38 in35.1 mm
10:02 PM 51.7°F10.9°C 40.3°F4.6°C 65% 7.0 mph N11.3 kmh N 15.0 mph24.1 kmh 29.55 in1000.7 mb 0.00 in0.0 mm 0.00 in0.0 mm 1.38 in35.1 mm
10:07 PM 51.7°F10.9°C 40.3°F4.6°C 65% 1.0 mph WNW1.6 kmh WNW 17.0 mph27.4 kmh 29.55 in1000.7 mb 0.00 in0.0 mm 0.00 in0.0 mm 1.38 in35.1 mm
10:12 PM 51.5°F10.8°C 40.1°F4.5°C 65% Calm Calm 17.0 mph27.4 kmh 29.55 in1000.7 mb 0.00 in0.0 mm 0.00 in0.0 mm 1.38 in35.1 mm
10:17 PM 51.4°F10.8°C 40.0°F4.4°C 65% Calm Calm 9.0 mph14.5 kmh 29.55 in1000.7 mb 0.00 in0.0 mm 0.00 in0.0 mm 1.38 in35.1 mm
10:22 PM 51.3°F10.7°C 40.3°F4.6°C 66% 4.0 mph WNW6.4 kmh WNW 5.0 mph8.0 kmh 29.56 in1001.0 mb 0.00 in0.0 mm 0.00 in0.0 mm 1.38 in35.1 mm
10:27 PM 51.2°F10.7°C 40.2°F4.6°C 66% Calm Calm 5.0 mph8.0 kmh 29.55 in1000.7 mb 0.00 in0.0 mm 0.00 in0.0 mm 1.38 in35.1 mm
10:32 PM 51.1°F10.6°C 40.1°F4.5°C 66% Calm Calm 9.0 mph14.5 kmh 29.55 in1000.7 mb 0.00 in0.0 mm 0.00 in0.0 mm 1.38 in35.1 mm
10:37 PM 50.9°F10.5°C 40.3°F4.6°C 67% Calm Calm 4.0 mph6.4 kmh 29.55 in1000.7 mb 0.00 in0.0 mm 0.00 in0.0 mm 1.38 in35.1 mm
10:42 PM 50.8°F10.4°C 40.2°F4.6°C 67% 3.0 mph W4.8 kmh W 6.0 mph9.7 kmh 29.55 in1000.7 mb 0.00 in0.0 mm 0.00 in0.0 mm 1.38 in35.1 mm
10:47 PM 50.7°F10.4°C 40.1°F4.5°C 67% Calm Calm 4.0 mph6.4 kmh 29.55 in1000.7 mb 0.00 in0.0 mm 0.00 in0.0 mm 1.38 in35.1 mm
10:52 PM 50.5°F10.3°C 40.3°F4.6°C 68% Calm Calm 2.0 mph3.2 kmh 29.55 in1000.7 mb 0.00 in0.0 mm 0.00 in0.0 mm 1.38 in35.1 mm
10:57 PM 50.3°F10.2°C 40.1°F4.5°C 68% Calm Calm -- 29.55 in1000.7 mb 0.00 in0.0 mm 0.00 in0.0 mm 1.38 in35.1 mm
11:02 PM 50.1°F10.1°C 40.3°F4.6°C 69% Calm Calm -- 29.55 in1000.7 mb 0.00 in0.0 mm 0.00 in0.0 mm 2.33 in59.2 mm
11:07 PM 49.8°F9.9°C 40.0°F4.4°C 69% Calm Calm 2.0 mph3.2 kmh 29.55 in1000.7 mb 0.00 in0.0 mm 0.00 in0.0 mm 2.33 in59.2 mm
11:12 PM 49.6°F9.8°C 39.9°F4.4°C 69% Calm Calm -- 29.55 in1000.7 mb 0.00 in0.0 mm 0.00 in0.0 mm 2.33 in59.2 mm
11:17 PM 49.5°F9.7°C 40.1°F4.5°C 70% Calm Calm -- 29.55 in1000.7 mb 0.00 in0.0 mm 0.00 in0.0 mm 2.33 in59.2 mm
11:22 PM 49.3°F9.6°C 39.9°F4.4°C 70% Calm Calm 2.0 mph3.2 kmh 29.55 in1000.7 mb 0.00 in0.0 mm 0.00 in0.0 mm 2.33 in59.2 mm
11:27 PM 49.2°F9.6°C 40.2°F4.6°C 71% 2.0 mph W3.2 kmh W 3.0 mph4.8 kmh 29.55 in1000.7 mb 0.00 in0.0 mm 0.00 in0.0 mm 2.33 in59.2 mm
11:32 PM 49.3°F9.6°C 39.9°F4.4°C 70% Calm Calm 1.0 mph1.6 kmh 29.55 in1000.7 mb 0.00 in0.0 mm 0.00 in0.0 mm 2.33 in59.2 mm
11:37 PM 49.4°F9.7°C 40.0°F4.4°C 70% Calm Calm -- 29.55 in1000.7 mb 0.00 in0.0 mm 0.00 in0.0 mm 2.33 in59.2 mm
11:42 PM 49.3°F9.6°C 39.9°F4.4°C 70% Calm Calm -- 29.55 in1000.7 mb 0.00 in0.0 mm 0.00 in0.0 mm 2.33 in59.2 mm
11:47 PM 49.2°F9.6°C 39.8°F4.3°C 70% 2.0 mph W3.2 kmh W 4.0 mph6.4 kmh 29.55 in1000.7 mb 0.00 in0.0 mm 0.00 in0.0 mm 2.33 in59.2 mm
11:52 PM 49.4°F9.7°C 40.0°F4.4°C 70% 5.0 mph WSW8.0 kmh WSW 5.0 mph8.0 kmh 29.55 in1000.7 mb 0.00 in0.0 mm 0.00 in0.0 mm 2.33 in59.2 mm
11:57 PM 49.4°F9.7°C 40.0°F4.4°C 70% Calm Calm -- 29.55 in1000.7 mb 0.00 in0.0 mm 0.00 in0.0 mm 2.33 in59.2 mm